sensor_id;sensor_type;location;lat;lon;timestamp;temperature;humidity
27200;DHT22;14714;48.106;11.546;2023-02-02T00:02:01;4.70;99.90
27200;DHT22;14714;48.106;11.546;2023-02-02T00:04:32;4.70;99.90
27200;DHT22;14714;48.106;11.546;2023-02-02T00:06:59;4.70;99.90
27200;DHT22;14714;48.106;11.546;2023-02-02T00:09:29;4.70;99.90
27200;DHT22;14714;48.106;11.546;2023-02-02T00:11:57;4.70;99.90
27200;DHT22;14714;48.106;11.546;2023-02-02T00:14:24;4.70;99.90
27200;DHT22;14714;48.106;11.546;2023-02-02T00:16:53;4.70;99.90
27200;DHT22;14714;48.106;11.546;2023-02-02T00:19:29;4.70;99.90
27200;DHT22;14714;48.106;11.546;2023-02-02T00:21:57;4.70;99.90
27200;DHT22;14714;48.106;11.546;2023-02-02T00:24:24;4.70;99.90
27200;DHT22;14714;48.106;11.546;2023-02-02T00:26:55;4.70;99.90
27200;DHT22;14714;48.106;11.546;2023-02-02T00:29:25;4.70;99.90
27200;DHT22;14714;48.106;11.546;2023-02-02T00:31:52;4.60;99.90
27200;DHT22;14714;48.106;11.546;2023-02-02T00:34:19;4.60;99.90
27200;DHT22;14714;48.106;11.546;2023-02-02T00:36:48;4.60;99.90
27200;DHT22;14714;48.106;11.546;2023-02-02T00:39:21;4.60;99.90
27200;DHT22;14714;48.106;11.546;2023-02-02T00:41:48;4.60;99.90
27200;DHT22;14714;48.106;11.546;2023-02-02T00:44:15;4.60;99.90
27200;DHT22;14714;48.106;11.546;2023-02-02T00:47:00;4.60;99.90
27200;DHT22;14714;48.106;11.546;2023-02-02T00:49:27;4.60;99.90
27200;DHT22;14714;48.106;11.546;2023-02-02T00:51:54;4.60;99.90
27200;DHT22;14714;48.106;11.546;2023-02-02T00:54:21;4.60;99.90
27200;DHT22;14714;48.106;11.546;2023-02-02T00:56:48;4.60;99.90
27200;DHT22;14714;48.106;11.546;2023-02-02T00:59:14;4.50;99.90
27200;DHT22;14714;48.106;11.546;2023-02-02T01:01:41;4.50;99.90
27200;DHT22;14714;48.106;11.546;2023-02-02T01:04:08;4.50;99.90
27200;DHT22;14714;48.106;11.546;2023-02-02T01:06:35;4.50;99.90
27200;DHT22;14714;48.106;11.546;2023-02-02T01:09:02;4.40;99.90
27200;DHT22;14714;48.106;11.546;2023-02-02T01:11:29;4.40;99.90
27200;DHT22;14714;48.106;11.546;2023-02-02T01:13:56;4.30;99.90
27200;DHT22;14714;48.106;11.546;2023-02-02T01:16:23;4.30;99.90
27200;DHT22;14714;48.106;11.546;2023-02-02T01:18:51;4.20;99.90
27200;DHT22;14714;48.106;11.546;2023-02-02T01:21:18;4.20;99.90
27200;DHT22;14714;48.106;11.546;2023-02-02T01:23:45;4.20;99.90
27200;DHT22;14714;48.106;11.546;2023-02-02T01:26:12;4.10;99.90
27200;DHT22;14714;48.106;11.546;2023-02-02T01:28:40;4.10;99.90
27200;DHT22;14714;48.106;11.546;2023-02-02T01:31:17;4.10;99.90
27200;DHT22;14714;48.106;11.546;2023-02-02T01:33:46;4.10;99.90
27200;DHT22;14714;48.106;11.546;2023-02-02T01:36:16;4.10;99.90
27200;DHT22;14714;48.106;11.546;2023-02-02T01:38:43;4.10;99.90
27200;DHT22;14714;48.106;11.546;2023-02-02T01:41:18;4.10;99.90
27200;DHT22;14714;48.106;11.546;2023-02-02T01:46:38;4.20;99.90
27200;DHT22;14714;48.106;11.546;2023-02-02T01:49:12;4.20;99.90
27200;DHT22;14714;48.106;11.546;2023-02-02T01:52:00;4.20;99.90
27200;DHT22;14714;48.106;11.546;2023-02-02T01:54:34;4.20;99.90
27200;DHT22;14714;48.106;11.546;2023-02-02T01:57:09;4.20;99.90
27200;DHT22;14714;48.106;11.546;2023-02-02T01:59:37;4.30;99.90
27200;DHT22;14714;48.106;11.546;2023-02-02T02:02:04;4.30;99.90
27200;DHT22;14714;48.106;11.546;2023-02-02T02:04:31;4.30;99.90
27200;DHT22;14714;48.106;11.546;2023-02-02T02:06:59;4.30;99.90
27200;DHT22;14714;48.106;11.546;2023-02-02T02:09:27;4.30;99.90
27200;DHT22;14714;48.106;11.546;2023-02-02T02:11:54;4.30;99.90
27200;DHT22;14714;48.106;11.546;2023-02-02T02:14:21;4.30;99.90
27200;DHT22;14714;48.106;11.546;2023-02-02T02:34:44;4.40;99.90
27200;DHT22;14714;48.106;11.546;2023-02-02T02:37:45;4.40;99.90
27200;DHT22;14714;48.106;11.546;2023-02-02T02:40:41;4.40;99.90
27200;DHT22;14714;48.106;11.546;2023-02-02T02:43:15;4.30;99.90
27200;DHT22;14714;48.106;11.546;2023-02-02T02:45:44;4.40;99.90
27200;DHT22;14714;48.106;11.546;2023-02-02T02:48:11;4.40;99.90
27200;DHT22;14714;48.106;11.546;2023-02-02T02:50:38;4.40;99.90
27200;DHT22;14714;48.106;11.546;2023-02-02T02:53:12;4.40;99.90
27200;DHT22;14714;48.106;11.546;2023-02-02T02:55:48;4.40;99.90
27200;DHT22;14714;48.106;11.546;2023-02-02T03:01:24;4.40;99.90
27200;DHT22;14714;48.106;11.546;2023-02-02T03:04:05;4.40;99.90
27200;DHT22;14714;48.106;11.546;2023-02-02T03:09:15;4.40;99.90
27200;DHT22;14714;48.106;11.546;2023-02-02T03:11:45;4.40;99.90
27200;DHT22;14714;48.106;11.546;2023-02-02T03:14:11;4.40;99.90
27200;DHT22;14714;48.106;11.546;2023-02-02T03:16:39;4.40;99.90
27200;DHT22;14714;48.106;11.546;2023-02-02T03:19:06;4.40;99.90
27200;DHT22;14714;48.106;11.546;2023-02-02T03:21:33;4.50;99.90
27200;DHT22;14714;48.106;11.546;2023-02-02T03:24:00;4.50;99.90
27200;DHT22;14714;48.106;11.546;2023-02-02T03:26:27;4.50;99.90
27200;DHT22;14714;48.106;11.546;2023-02-02T03:28:55;4.50;99.90
27200;DHT22;14714;48.106;11.546;2023-02-02T03:31:25;4.50;99.90
27200;DHT22;14714;48.106;11.546;2023-02-02T03:33:53;4.50;99.90
27200;DHT22;14714;48.106;11.546;2023-02-02T03:36:20;4.40;99.90
27200;DHT22;14714;48.106;11.546;2023-02-02T03:38:47;4.40;99.90
27200;DHT22;14714;48.106;11.546;2023-02-02T03:41:14;4.40;99.90
27200;DHT22;14714;48.106;11.546;2023-02-02T03:43:40;4.30;99.90
27200;DHT22;14714;48.106;11.546;2023-02-02T03:46:07;4.30;99.90
27200;DHT22;14714;48.106;11.546;2023-02-02T03:48:36;4.20;99.90
27200;DHT22;14714;48.106;11.546;2023-02-02T03:51:10;4.20;99.90
27200;DHT22;14714;48.106;11.546;2023-02-02T03:53:38;4.10;99.90
27200;DHT22;14714;48.106;11.546;2023-02-02T03:56:05;4.10;99.90
27200;DHT22;14714;48.106;11.546;2023-02-02T03:58:32;4.10;99.90
27200;DHT22;14714;48.106;11.546;2023-02-02T04:01:04;4.10;99.90
27200;DHT22;14714;48.106;11.546;2023-02-02T04:03:32;4.10;99.90
27200;DHT22;14714;48.106;11.546;2023-02-02T04:05:59;4.20;99.90
27200;DHT22;14714;48.106;11.546;2023-02-02T04:08:26;4.20;99.90
27200;DHT22;14714;48.106;11.546;2023-02-02T04:10:54;4.20;99.90
27200;DHT22;14714;48.106;11.546;2023-02-02T04:13:20;4.20;99.90
27200;DHT22;14714;48.106;11.546;2023-02-02T04:15:47;4.20;99.90
27200;DHT22;14714;48.106;11.546;2023-02-02T04:18:21;4.30;99.90
27200;DHT22;14714;48.106;11.546;2023-02-02T04:20:48;4.30;99.90
27200;DHT22;14714;48.106;11.546;2023-02-02T04:23:14;4.30;99.90
27200;DHT22;14714;48.106;11.546;2023-02-02T04:25:48;4.40;99.90
27200;DHT22;14714;48.106;11.546;2023-02-02T04:28:15;4.40;99.90
27200;DHT22;14714;48.106;11.546;2023-02-02T04:30:42;4.40;99.90
27200;DHT22;14714;48.106;11.546;2023-02-02T04:33:08;4.40;99.90
27200;DHT22;14714;48.106;11.546;2023-02-02T04:35:35;4.40;99.90
27200;DHT22;14714;48.106;11.546;2023-02-02T04:38:02;4.40;99.90
27200;DHT22;14714;48.106;11.546;2023-02-02T04:40:29;4.50;99.90
27200;DHT22;14714;48.106;11.546;2023-02-02T04:42:56;4.50;99.90
27200;DHT22;14714;48.106;11.546;2023-02-02T04:45:23;4.50;99.90
27200;DHT22;14714;48.106;11.546;2023-02-02T04:47:51;4.50;99.90
27200;DHT22;14714;48.106;11.546;2023-02-02T04:50:17;4.50;99.90
27200;DHT22;14714;48.106;11.546;2023-02-02T04:52:44;4.50;99.90
27200;DHT22;14714;48.106;11.546;2023-02-02T04:55:11;4.50;99.90
27200;DHT22;14714;48.106;11.546;2023-02-02T04:57:38;4.50;99.90
27200;DHT22;14714;48.106;11.546;2023-02-02T05:00:05;4.50;99.90
27200;DHT22;14714;48.106;11.546;2023-02-02T05:02:36;4.50;99.90
27200;DHT22;14714;48.106;11.546;2023-02-02T05:05:05;4.60;99.90
27200;DHT22;14714;48.106;11.546;2023-02-02T05:07:33;4.60;99.90
27200;DHT22;14714;48.106;11.546;2023-02-02T05:10:00;4.60;99.90
27200;DHT22;14714;48.106;11.546;2023-02-02T05:12:26;4.60;99.90
27200;DHT22;14714;48.106;11.546;2023-02-02T05:14:53;4.60;99.90
27200;DHT22;14714;48.106;11.546;2023-02-02T05:17:20;4.60;99.90
27200;DHT22;14714;48.106;11.546;2023-02-02T05:19:47;4.60;99.90
27200;DHT22;14714;48.106;11.546;2023-02-02T05:22:13;4.60;99.90
27200;DHT22;14714;48.106;11.546;2023-02-02T05:24:40;4.70;99.90
27200;DHT22;14714;48.106;11.546;2023-02-02T05:27:07;4.60;99.90
27200;DHT22;14714;48.106;11.546;2023-02-02T05:29:34;4.70;99.90
27200;DHT22;14714;48.106;11.546;2023-02-02T05:32:00;4.70;99.90
27200;DHT22;14714;48.106;11.546;2023-02-02T05:34:27;4.60;99.90
27200;DHT22;14714;48.106;11.546;2023-02-02T05:36:54;4.70;99.90
27200;DHT22;14714;48.106;11.546;2023-02-02T05:39:21;4.70;99.90
27200;DHT22;14714;48.106;11.546;2023-02-02T05:41:47;4.70;99.90
27200;DHT22;14714;48.106;11.546;2023-02-02T05:44:15;4.70;99.90
27200;DHT22;14714;48.106;11.546;2023-02-02T05:46:42;4.60;99.90
27200;DHT22;14714;48.106;11.546;2023-02-02T05:49:13;4.60;99.90
27200;DHT22;14714;48.106;11.546;2023-02-02T05:51:43;4.60;99.90
27200;DHT22;14714;48.106;11.546;2023-02-02T05:54:11;4.60;99.90
27200;DHT22;14714;48.106;11.546;2023-02-02T05:56:38;4.60;99.90
27200;DHT22;14714;48.106;11.546;2023-02-02T05:59:05;4.50;99.90
27200;DHT22;14714;48.106;11.546;2023-02-02T06:01:33;4.50;99.90
27200;DHT22;14714;48.106;11.546;2023-02-02T06:04:00;4.50;99.90
27200;DHT22;14714;48.106;11.546;2023-02-02T06:06:26;4.50;99.90
27200;DHT22;14714;48.106;11.546;2023-02-02T06:08:53;4.50;99.90
27200;DHT22;14714;48.106;11.546;2023-02-02T06:11:20;4.50;99.90
27200;DHT22;14714;48.106;11.546;2023-02-02T06:13:47;4.50;99.90
27200;DHT22;14714;48.106;11.546;2023-02-02T06:16:14;4.50;99.90
27200;DHT22;14714;48.106;11.546;2023-02-02T06:18:40;4.50;99.90
27200;DHT22;14714;48.106;11.546;2023-02-02T06:21:08;4.50;99.90
27200;DHT22;14714;48.106;11.546;2023-02-02T06:23:35;4.50;99.90
27200;DHT22;14714;48.106;11.546;2023-02-02T06:26:02;4.60;99.90
27200;DHT22;14714;48.106;11.546;2023-02-02T06:28:30;4.60;99.90
27200;DHT22;14714;48.106;11.546;2023-02-02T06:31:08;4.60;99.90
27200;DHT22;14714;48.106;11.546;2023-02-02T06:33:36;4.60;99.90
27200;DHT22;14714;48.106;11.546;2023-02-02T06:36:04;4.60;99.90
27200;DHT22;14714;48.106;11.546;2023-02-02T06:38:32;4.60;99.90
27200;DHT22;14714;48.106;11.546;2023-02-02T06:40:59;4.60;99.90
27200;DHT22;14714;48.106;11.546;2023-02-02T06:43:26;4.60;99.90
27200;DHT22;14714;48.106;11.546;2023-02-02T06:45:53;4.60;99.90
27200;DHT22;14714;48.106;11.546;2023-02-02T06:48:22;4.60;99.90
27200;DHT22;14714;48.106;11.546;2023-02-02T06:50:48;4.60;99.90
27200;DHT22;14714;48.106;11.546;2023-02-02T06:53:15;4.60;99.90
27200;DHT22;14714;48.106;11.546;2023-02-02T06:56:01;4.60;99.90
27200;DHT22;14714;48.106;11.546;2023-02-02T06:58:29;4.60;99.90
27200;DHT22;14714;48.106;11.546;2023-02-02T07:01:04;4.60;99.90
27200;DHT22;14714;48.106;11.546;2023-02-02T07:03:32;4.60;99.90
27200;DHT22;14714;48.106;11.546;2023-02-02T07:06:10;4.60;99.90
27200;DHT22;14714;48.106;11.546;2023-02-02T07:08:36;4.60;99.90
27200;DHT22;14714;48.106;11.546;2023-02-02T07:11:03;4.60;99.90
27200;DHT22;14714;48.106;11.546;2023-02-02T07:13:42;4.50;99.90
27200;DHT22;14714;48.106;11.546;2023-02-02T07:16:09;4.60;99.90
27200;DHT22;14714;48.106;11.546;2023-02-02T07:18:39;4.60;99.90
27200;DHT22;14714;48.106;11.546;2023-02-02T07:21:05;4.60;99.90
27200;DHT22;14714;48.106;11.546;2023-02-02T07:23:33;4.60;99.90
27200;DHT22;14714;48.106;11.546;2023-02-02T07:26:04;4.60;99.90
27200;DHT22;14714;48.106;11.546;2023-02-02T07:28:32;4.60;99.90
27200;DHT22;14714;48.106;11.546;2023-02-02T07:30:59;4.60;99.90
27200;DHT22;14714;48.106;11.546;2023-02-02T07:33:26;4.70;99.90
27200;DHT22;14714;48.106;11.546;2023-02-02T07:35:53;4.70;99.90
27200;DHT22;14714;48.106;11.546;2023-02-02T07:38:20;4.70;99.90
27200;DHT22;14714;48.106;11.546;2023-02-02T07:40:46;4.70;99.90
27200;DHT22;14714;48.106;11.546;2023-02-02T07:43:13;4.70;99.90
27200;DHT22;14714;48.106;11.546;2023-02-02T07:45:40;4.70;99.90
27200;DHT22;14714;48.106;11.546;2023-02-02T07:48:07;4.70;99.90
27200;DHT22;14714;48.106;11.546;2023-02-02T07:50:34;4.70;99.90
27200;DHT22;14714;48.106;11.546;2023-02-02T07:53:01;4.80;99.90
27200;DHT22;14714;48.106;11.546;2023-02-02T07:55:28;4.80;99.90
27200;DHT22;14714;48.106;11.546;2023-02-02T07:57:55;4.80;99.90
27200;DHT22;14714;48.106;11.546;2023-02-02T08:00:25;4.80;99.90
27200;DHT22;14714;48.106;11.546;2023-02-02T08:02:52;4.80;99.90
27200;DHT22;14714;48.106;11.546;2023-02-02T08:05:19;4.80;99.90
27200;DHT22;14714;48.106;11.546;2023-02-02T08:07:48;4.80;99.90
27200;DHT22;14714;48.106;11.546;2023-02-02T08:10:15;4.80;99.90
27200;DHT22;14714;48.106;11.546;2023-02-02T08:12:42;4.80;99.90
27200;DHT22;14714;48.106;11.546;2023-02-02T08:15:09;4.80;99.90
27200;DHT22;14714;48.106;11.546;2023-02-02T08:17:37;4.80;99.90
27200;DHT22;14714;48.106;11.546;2023-02-02T08:20:04;4.70;99.90
27200;DHT22;14714;48.106;11.546;2023-02-02T08:22:31;4.70;99.90
27200;DHT22;14714;48.106;11.546;2023-02-02T08:24:58;4.70;99.90
27200;DHT22;14714;48.106;11.546;2023-02-02T08:27:25;4.70;99.90
27200;DHT22;14714;48.106;11.546;2023-02-02T08:29:52;4.70;99.90
27200;DHT22;14714;48.106;11.546;2023-02-02T08:32:18;4.70;99.90
27200;DHT22;14714;48.106;11.546;2023-02-02T08:34:47;4.70;99.90
27200;DHT22;14714;48.106;11.546;2023-02-02T08:37:14;4.70;99.90
27200;DHT22;14714;48.106;11.546;2023-02-02T08:39:41;4.70;99.90
27200;DHT22;14714;48.106;11.546;2023-02-02T08:42:08;4.70;99.90
27200;DHT22;14714;48.106;11.546;2023-02-02T08:44:34;4.60;99.90
27200;DHT22;14714;48.106;11.546;2023-02-02T08:47:21;4.70;99.90
27200;DHT22;14714;48.106;11.546;2023-02-02T08:49:48;4.70;99.90
27200;DHT22;14714;48.106;11.546;2023-02-02T08:52:15;4.70;99.90
27200;DHT22;14714;48.106;11.546;2023-02-02T08:54:42;4.70;99.90
27200;DHT22;14714;48.106;11.546;2023-02-02T08:57:08;4.70;99.90
27200;DHT22;14714;48.106;11.546;2023-02-02T08:59:35;4.70;99.90
27200;DHT22;14714;48.106;11.546;2023-02-02T09:02:02;4.70;99.90
27200;DHT22;14714;48.106;11.546;2023-02-02T09:04:29;4.70;99.90
27200;DHT22;14714;48.106;11.546;2023-02-02T09:06:55;4.70;99.90
27200;DHT22;14714;48.106;11.546;2023-02-02T09:09:22;4.70;99.90
27200;DHT22;14714;48.106;11.546;2023-02-02T09:11:49;4.70;99.90
27200;DHT22;14714;48.106;11.546;2023-02-02T09:14:16;4.70;99.90
27200;DHT22;14714;48.106;11.546;2023-02-02T09:16:42;4.70;99.90
27200;DHT22;14714;48.106;11.546;2023-02-02T09:19:10;4.70;99.90
27200;DHT22;14714;48.106;11.546;2023-02-02T09:21:37;4.70;99.90
27200;DHT22;14714;48.106;11.546;2023-02-02T09:24:09;4.80;99.90
27200;DHT22;14714;48.106;11.546;2023-02-02T09:26:36;4.80;99.90
27200;DHT22;14714;48.106;11.546;2023-02-02T09:29:06;4.80;99.90
27200;DHT22;14714;48.106;11.546;2023-02-02T09:31:36;4.80;99.90
27200;DHT22;14714;48.106;11.546;2023-02-02T09:34:05;4.80;99.90
27200;DHT22;14714;48.106;11.546;2023-02-02T09:36:33;4.80;99.90
27200;DHT22;14714;48.106;11.546;2023-02-02T09:39:00;4.90;99.90
27200;DHT22;14714;48.106;11.546;2023-02-02T09:50:05;5.00;99.90
27200;DHT22;14714;48.106;11.546;2023-02-02T09:55:35;5.00;99.90
27200;DHT22;14714;48.106;11.546;2023-02-02T10:00:55;5.00;99.90
27200;DHT22;14714;48.106;11.546;2023-02-02T10:03:44;5.00;99.90
27200;DHT22;14714;48.106;11.546;2023-02-02T10:12:27;5.00;99.90
27200;DHT22;14714;48.106;11.546;2023-02-02T10:20:45;5.00;99.90
27200;DHT22;14714;48.106;11.546;2023-02-02T10:23:26;5.00;99.90
27200;DHT22;14714;48.106;11.546;2023-02-02T10:28:43;5.10;99.90
27200;DHT22;14714;48.106;11.546;2023-02-02T10:41:55;5.20;99.90
27200;DHT22;14714;48.106;11.546;2023-02-02T10:44:31;5.20;99.90
27200;DHT22;14714;48.106;11.546;2023-02-02T10:47:00;5.20;99.90
27200;DHT22;14714;48.106;11.546;2023-02-02T10:54:45;5.30;99.90
27200;DHT22;14714;48.106;11.546;2023-02-02T10:57:50;5.30;99.90
27200;DHT22;14714;48.106;11.546;2023-02-02T11:00:20;5.40;99.90
27200;DHT22;14714;48.106;11.546;2023-02-02T11:02:50;5.50;99.90
27200;DHT22;14714;48.106;11.546;2023-02-02T11:05:20;5.50;99.90
27200;DHT22;14714;48.106;11.546;2023-02-02T11:08:21;5.60;99.90
27200;DHT22;14714;48.106;11.546;2023-02-02T11:10:53;5.70;99.90
27200;DHT22;14714;48.106;11.546;2023-02-02T11:13:43;5.80;99.90
27200;DHT22;14714;48.106;11.546;2023-02-02T11:18:43;5.90;99.90
27200;DHT22;14714;48.106;11.546;2023-02-02T11:21:32;6.00;99.90
27200;DHT22;14714;48.106;11.546;2023-02-02T11:24:04;6.10;99.90
27200;DHT22;14714;48.106;11.546;2023-02-02T11:26:47;6.10;99.90
27200;DHT22;14714;48.106;11.546;2023-02-02T11:29:19;6.20;99.90
27200;DHT22;14714;48.106;11.546;2023-02-02T11:31:47;6.30;99.90
27200;DHT22;14714;48.106;11.546;2023-02-02T11:34:35;6.30;99.90
27200;DHT22;14714;48.106;11.546;2023-02-02T11:37:14;6.40;99.90
27200;DHT22;14714;48.106;11.546;2023-02-02T11:39:45;6.30;99.90
27200;DHT22;14714;48.106;11.546;2023-02-02T11:42:16;6.20;99.90
27200;DHT22;14714;48.106;11.546;2023-02-02T11:44:56;6.20;99.90
27200;DHT22;14714;48.106;11.546;2023-02-02T11:47:29;6.10;99.90
27200;DHT22;14714;48.106;11.546;2023-02-02T11:50:00;6.10;99.90
27200;DHT22;14714;48.106;11.546;2023-02-02T11:52:30;6.00;99.90
27200;DHT22;14714;48.106;11.546;2023-02-02T11:55:01;6.00;99.90
27200;DHT22;14714;48.106;11.546;2023-02-02T11:57:34;6.00;99.90
27200;DHT22;14714;48.106;11.546;2023-02-02T12:02:47;6.00;99.90
27200;DHT22;14714;48.106;11.546;2023-02-02T12:07:49;6.10;99.90
27200;DHT22;14714;48.106;11.546;2023-02-02T12:19:32;6.20;99.90
27200;DHT22;14714;48.106;11.546;2023-02-02T12:43:40;5.70;99.90
27200;DHT22;14714;48.106;11.546;2023-02-02T12:55:09;5.50;99.90
27200;DHT22;14714;48.106;11.546;2023-02-02T12:57:55;5.50;99.90
27200;DHT22;14714;48.106;11.546;2023-02-02T13:08:38;5.40;99.90
27200;DHT22;14714;48.106;11.546;2023-02-02T13:11:13;5.30;99.90
27200;DHT22;14714;48.106;11.546;2023-02-02T13:14:20;5.30;99.90
27200;DHT22;14714;48.106;11.546;2023-02-02T13:16:52;5.30;99.90
27200;DHT22;14714;48.106;11.546;2023-02-02T13:19:48;5.20;99.90
27200;DHT22;14714;48.106;11.546;2023-02-02T13:22:32;5.10;99.90
27200;DHT22;14714;48.106;11.546;2023-02-02T13:25:02;5.00;99.90
27200;DHT22;14714;48.106;11.546;2023-02-02T13:27:31;5.00;99.90
27200;DHT22;14714;48.106;11.546;2023-02-02T13:32:58;4.90;99.90
27200;DHT22;14714;48.106;11.546;2023-02-02T13:35:32;4.80;99.90
27200;DHT22;14714;48.106;11.546;2023-02-02T13:40:46;4.80;99.90
27200;DHT22;14714;48.106;11.546;2023-02-02T13:46:07;4.80;99.90
27200;DHT22;14714;48.106;11.546;2023-02-02T13:48:46;4.80;99.90
27200;DHT22;14714;48.106;11.546;2023-02-02T14:00:19;4.70;99.90
27200;DHT22;14714;48.106;11.546;2023-02-02T14:02:55;4.70;99.90
27200;DHT22;14714;48.106;11.546;2023-02-02T14:08:16;4.60;99.90
27200;DHT22;14714;48.106;11.546;2023-02-02T14:13:29;4.60;99.90
27200;DHT22;14714;48.106;11.546;2023-02-02T14:16:42;4.60;99.90
27200;DHT22;14714;48.106;11.546;2023-02-02T14:20:00;4.60;99.90
27200;DHT22;14714;48.106;11.546;2023-02-02T14:29:39;4.50;99.90
27200;DHT22;14714;48.106;11.546;2023-02-02T14:38:09;4.50;99.90
27200;DHT22;14714;48.106;11.546;2023-02-02T14:40:47;4.50;99.90
27200;DHT22;14714;48.106;11.546;2023-02-02T14:48:40;4.40;99.90
27200;DHT22;14714;48.106;11.546;2023-02-02T14:51:27;4.40;99.90
27200;DHT22;14714;48.106;11.546;2023-02-02T14:53:58;4.40;99.90
27200;DHT22;14714;48.106;11.546;2023-02-02T14:56:57;4.40;99.90
27200;DHT22;14714;48.106;11.546;2023-02-02T14:59:36;4.40;99.90
27200;DHT22;14714;48.106;11.546;2023-02-02T15:05:33;4.40;99.90
27200;DHT22;14714;48.106;11.546;2023-02-02T15:11:03;4.40;99.90
27200;DHT22;14714;48.106;11.546;2023-02-02T15:13:58;4.40;99.90
27200;DHT22;14714;48.106;11.546;2023-02-02T15:16:35;4.40;99.90
27200;DHT22;14714;48.106;11.546;2023-02-02T15:19:14;4.40;99.90
27200;DHT22;14714;48.106;11.546;2023-02-02T15:21:44;4.40;99.90
27200;DHT22;14714;48.106;11.546;2023-02-02T15:24:25;4.40;99.90
27200;DHT22;14714;48.106;11.546;2023-02-02T15:26:54;4.40;99.90
27200;DHT22;14714;48.106;11.546;2023-02-02T15:32:04;4.40;99.90
27200;DHT22;14714;48.106;11.546;2023-02-02T15:34:45;4.40;99.90
27200;DHT22;14714;48.106;11.546;2023-02-02T15:37:22;4.40;99.90
27200;DHT22;14714;48.106;11.546;2023-02-02T15:39:53;4.40;99.90
27200;DHT22;14714;48.106;11.546;2023-02-02T15:42:45;4.40;99.90
27200;DHT22;14714;48.106;11.546;2023-02-02T15:45:53;4.40;99.90
27200;DHT22;14714;48.106;11.546;2023-02-02T15:48:29;4.40;99.90
27200;DHT22;14714;48.106;11.546;2023-02-02T15:51:03;4.40;99.90
27200;DHT22;14714;48.106;11.546;2023-02-02T15:53:46;4.40;99.90
27200;DHT22;14714;48.106;11.546;2023-02-02T15:58:52;4.40;99.90
27200;DHT22;14714;48.106;11.546;2023-02-02T16:01:21;4.40;99.90
27200;DHT22;14714;48.106;11.546;2023-02-02T16:03:56;4.40;99.90
27200;DHT22;14714;48.106;11.546;2023-02-02T16:06:24;4.40;99.90
27200;DHT22;14714;48.106;11.546;2023-02-02T16:08:51;4.30;99.90
27200;DHT22;14714;48.106;11.546;2023-02-02T16:11:20;4.40;99.90
27200;DHT22;14714;48.106;11.546;2023-02-02T16:14:02;4.40;99.90
27200;DHT22;14714;48.106;11.546;2023-02-02T16:16:37;4.40;99.90
27200;DHT22;14714;48.106;11.546;2023-02-02T16:21:39;4.40;99.90
27200;DHT22;14714;48.106;11.546;2023-02-02T16:27:11;4.30;99.90
27200;DHT22;14714;48.106;11.546;2023-02-02T16:29:39;4.40;99.90
27200;DHT22;14714;48.106;11.546;2023-02-02T16:34:54;4.40;99.90
27200;DHT22;14714;48.106;11.546;2023-02-02T16:39:54;4.40;99.90
27200;DHT22;14714;48.106;11.546;2023-02-02T16:42:27;4.40;99.90
27200;DHT22;14714;48.106;11.546;2023-02-02T16:44:55;4.40;99.90
27200;DHT22;14714;48.106;11.546;2023-02-02T16:52:59;4.40;99.90
27200;DHT22;14714;48.106;11.546;2023-02-02T16:55:29;4.40;99.90
27200;DHT22;14714;48.106;11.546;2023-02-02T16:58:18;4.40;99.90
27200;DHT22;14714;48.106;11.546;2023-02-02T17:01:09;4.40;99.90
27200;DHT22;14714;48.106;11.546;2023-02-02T17:03:49;4.50;99.90
27200;DHT22;14714;48.106;11.546;2023-02-02T17:06:25;4.60;99.90
27200;DHT22;14714;48.106;11.546;2023-02-02T17:09:18;4.60;99.90
27200;DHT22;14714;48.106;11.546;2023-02-02T17:12:04;4.60;99.90
27200;DHT22;14714;48.106;11.546;2023-02-02T17:14:56;4.70;99.90
27200;DHT22;14714;48.106;11.546;2023-02-02T17:17:26;4.70;99.90
27200;DHT22;14714;48.106;11.546;2023-02-02T17:19:53;4.70;99.90
27200;DHT22;14714;48.106;11.546;2023-02-02T17:22:21;4.70;99.90
27200;DHT22;14714;48.106;11.546;2023-02-02T17:24:50;4.70;99.90
27200;DHT22;14714;48.106;11.546;2023-02-02T17:27:29;4.70;99.90
27200;DHT22;14714;48.106;11.546;2023-02-02T17:30:00;4.70;99.90
27200;DHT22;14714;48.106;11.546;2023-02-02T17:32:28;4.70;99.90
27200;DHT22;14714;48.106;11.546;2023-02-02T17:34:55;4.70;99.90
27200;DHT22;14714;48.106;11.546;2023-02-02T17:37:21;4.70;99.90
27200;DHT22;14714;48.106;11.546;2023-02-02T17:39:48;4.80;99.90
27200;DHT22;14714;48.106;11.546;2023-02-02T17:42:26;4.80;99.90
27200;DHT22;14714;48.106;11.546;2023-02-02T17:44:53;4.80;99.90
27200;DHT22;14714;48.106;11.546;2023-02-02T17:47:20;4.80;99.90
27200;DHT22;14714;48.106;11.546;2023-02-02T17:49:46;4.90;99.90
27200;DHT22;14714;48.106;11.546;2023-02-02T17:52:13;4.90;99.90
27200;DHT22;14714;48.106;11.546;2023-02-02T17:54:40;4.90;99.90
27200;DHT22;14714;48.106;11.546;2023-02-02T17:57:07;4.90;99.90
27200;DHT22;14714;48.106;11.546;2023-02-02T17:59:33;4.90;99.90
27200;DHT22;14714;48.106;11.546;2023-02-02T18:02:00;4.90;99.90
27200;DHT22;14714;48.106;11.546;2023-02-02T18:04:27;4.90;99.90
27200;DHT22;14714;48.106;11.546;2023-02-02T18:06:54;4.90;99.90
27200;DHT22;14714;48.106;11.546;2023-02-02T18:09:21;4.90;99.90
27200;DHT22;14714;48.106;11.546;2023-02-02T18:11:47;4.80;99.90
27200;DHT22;14714;48.106;11.546;2023-02-02T18:14:15;4.90;99.90
27200;DHT22;14714;48.106;11.546;2023-02-02T18:16:42;4.90;99.90
27200;DHT22;14714;48.106;11.546;2023-02-02T18:19:08;4.90;99.90
27200;DHT22;14714;48.106;11.546;2023-02-02T18:21:36;4.90;99.90
27200;DHT22;14714;48.106;11.546;2023-02-02T18:24:03;4.90;99.90
27200;DHT22;14714;48.106;11.546;2023-02-02T18:26:29;4.90;99.90
27200;DHT22;14714;48.106;11.546;2023-02-02T18:28:58;4.90;99.90
27200;DHT22;14714;48.106;11.546;2023-02-02T18:31:25;4.90;99.90
27200;DHT22;14714;48.106;11.546;2023-02-02T18:33:52;4.90;99.90
27200;DHT22;14714;48.106;11.546;2023-02-02T18:36:20;4.90;99.90
27200;DHT22;14714;48.106;11.546;2023-02-02T18:38:50;4.90;99.90
27200;DHT22;14714;48.106;11.546;2023-02-02T18:41:18;4.80;99.90
27200;DHT22;14714;48.106;11.546;2023-02-02T18:43:47;4.80;99.90
27200;DHT22;14714;48.106;11.546;2023-02-02T18:46:15;4.80;99.90
27200;DHT22;14714;48.106;11.546;2023-02-02T18:48:42;4.70;99.90
27200;DHT22;14714;48.106;11.546;2023-02-02T18:51:14;4.70;99.90
27200;DHT22;14714;48.106;11.546;2023-02-02T18:53:42;4.70;99.90
27200;DHT22;14714;48.106;11.546;2023-02-02T18:56:10;4.70;99.90
27200;DHT22;14714;48.106;11.546;2023-02-02T18:58:38;4.60;99.90
27200;DHT22;14714;48.106;11.546;2023-02-02T19:01:07;4.60;99.90
27200;DHT22;14714;48.106;11.546;2023-02-02T19:03:34;4.60;99.90
27200;DHT22;14714;48.106;11.546;2023-02-02T19:06:03;4.60;99.90
27200;DHT22;14714;48.106;11.546;2023-02-02T19:08:48;4.60;99.90
27200;DHT22;14714;48.106;11.546;2023-02-02T19:11:21;4.60;99.90